createdAt,value
2018-07-21T00:03:16.979Z,81.90
2018-07-21T00:06:41.627Z,82.10
2018-07-21T00:10:06.793Z,82.10
2018-07-21T00:13:31.589Z,82.00
2018-07-21T00:16:56.235Z,82.10
2018-07-21T00:20:20.936Z,82.50
2018-07-21T00:23:45.626Z,83.70
2018-07-21T00:27:10.326Z,85.60
2018-07-21T00:30:35.011Z,86.20
2018-07-21T00:33:59.762Z,87.50
2018-07-21T00:37:24.365Z,88.00
2018-07-21T00:40:48.994Z,88.70
2018-07-21T00:44:13.603Z,88.60
2018-07-21T00:47:38.280Z,90.10
2018-07-21T00:51:02.992Z,90.30
2018-07-21T00:54:27.687Z,89.70
2018-07-21T00:57:52.382Z,89.50
2018-07-21T01:01:17.152Z,88.20
2018-07-21T01:04:41.877Z,86.10
2018-07-21T01:11:31.002Z,85.30
2018-07-21T01:14:55.665Z,86.00
2018-07-21T01:18:20.362Z,85.50
2018-07-21T01:21:45.051Z,85.90
2018-07-21T01:25:09.655Z,85.30
2018-07-21T01:28:34.313Z,84.90
2018-07-21T01:31:59.131Z,84.40
2018-07-21T01:38:48.269Z,84.60
2018-07-21T01:42:12.947Z,84.20
2018-07-21T01:45:37.625Z,84.70
2018-07-21T01:49:02.249Z,83.80
2018-07-21T01:52:26.911Z,84.00
2018-07-21T01:55:51.513Z,83.00
2018-07-21T01:59:16.119Z,83.90
2018-07-21T02:02:40.771Z,84.70
2018-07-21T02:06:05.436Z,85.00
2018-07-21T02:09:30.090Z,86.20
2018-07-21T02:12:54.715Z,84.70
2018-07-21T02:16:19.375Z,84.60
2018-07-21T02:23:08.537Z,83.90
2018-07-21T02:29:58.837Z,85.40
2018-07-21T02:33:23.463Z,86.10
2018-07-21T02:36:48.077Z,85.40
2018-07-21T02:41:41.827Z,86.60
2018-07-21T02:45:06.691Z,86.10
2018-07-21T02:48:31.331Z,85.90
2018-07-21T02:51:55.988Z,85.90
2018-07-21T02:55:20.757Z,86.30
2018-07-21T02:58:45.400Z,86.80
2018-07-21T03:02:10.082Z,87.20
2018-07-21T03:05:34.737Z,86.40
2018-07-21T03:08:59.429Z,86.80
2018-07-21T03:12:24.094Z,86.90
2018-07-21T03:15:48.822Z,87.10
2018-07-21T03:19:13.496Z,87.10
2018-07-21T03:22:38.125Z,87.40
2018-07-21T03:26:02.843Z,87.40
2018-07-21T03:29:27.589Z,88.90
2018-07-21T03:32:52.244Z,88.50
2018-07-21T03:36:16.869Z,89.20
2018-07-21T03:39:41.523Z,90.00
2018-07-21T03:43:06.328Z,90.00
2018-07-21T03:46:31.051Z,91.00
2018-07-21T03:49:55.769Z,90.60
2018-07-21T03:53:20.484Z,90.20
2018-07-21T03:56:45.174Z,90.00
2018-07-21T04:00:09.894Z,90.40
2018-07-21T04:03:34.568Z,91.30
2018-07-21T04:06:59.218Z,90.70
2018-07-21T04:10:23.906Z,89.90
2018-07-21T04:13:48.587Z,86.80
2018-07-21T04:17:17.261Z,86.80
2018-07-21T04:20:41.943Z,87.40
2018-07-21T04:27:31.079Z,88.00
2018-07-21T04:30:55.777Z,89.80
2018-07-21T04:34:20.418Z,90.40
2018-07-21T04:37:45.081Z,91.10
2018-07-21T04:41:09.725Z,91.70
2018-07-21T04:44:34.605Z,92.20
2018-07-21T04:47:59.228Z,92.00
2018-07-21T04:51:23.864Z,92.20
2018-07-21T04:54:48.525Z,92.10
2018-07-21T04:58:13.169Z,92.20
2018-07-21T05:01:37.826Z,92.10
2018-07-21T05:05:02.476Z,91.90
2018-07-21T05:08:27.153Z,91.80
2018-07-21T05:11:51.850Z,91.90
2018-07-21T05:15:16.529Z,91.20
2018-07-21T05:18:41.175Z,90.70
2018-07-21T05:22:06.157Z,90.90
2018-07-21T05:28:55.234Z,91.50
2018-07-21T05:32:20.021Z,92.00
2018-07-21T05:35:44.825Z,92.20
2018-07-21T05:39:10.677Z,92.10
2018-07-21T05:42:35.393Z,92.40
2018-07-21T05:46:00.039Z,92.10
2018-07-21T05:57:23.915Z,91.90
2018-07-21T06:00:48.762Z,92.70
2018-07-21T06:04:13.619Z,92.50
2018-07-21T06:07:38.511Z,93.20
2018-07-21T06:11:03.295Z,93.20
2018-07-21T06:14:28.019Z,93.00
2018-07-21T06:17:52.659Z,92.30
2018-07-21T06:21:17.381Z,92.40
2018-07-21T06:24:42.142Z,92.20
2018-07-21T06:31:31.357Z,91.80
2018-07-21T06:34:56.190Z,91.70
2018-07-21T06:38:20.903Z,89.20
2018-07-21T06:41:45.755Z,89.20
2018-07-21T06:45:10.508Z,87.50
2018-07-21T06:48:35.236Z,87.50
2018-07-21T06:52:00.120Z,87.30
2018-07-21T06:55:25.015Z,87.40
2018-07-21T06:58:49.794Z,87.50
2018-07-21T07:02:14.569Z,87.90
2018-07-21T07:05:41.025Z,89.10
2018-07-21T07:12:32.415Z,90.50
2018-07-21T07:15:57.118Z,90.50
2018-07-21T07:19:21.858Z,91.00
2018-07-21T07:26:10.853Z,91.10
2018-07-21T07:29:35.742Z,90.90
2018-07-21T07:33:00.483Z,90.80
2018-07-21T07:36:25.139Z,91.20
2018-07-21T07:39:49.905Z,91.90
2018-07-21T07:43:14.740Z,92.10
2018-07-21T07:46:39.511Z,91.60
2018-07-21T07:50:04.513Z,91.90
2018-07-21T07:53:29.212Z,91.90
2018-07-21T07:56:54.038Z,92.00
2018-07-21T08:00:18.786Z,92.10
2018-07-21T08:03:43.477Z,92.10
2018-07-21T08:07:08.117Z,91.90
2018-07-21T08:10:32.850Z,92.40
2018-07-21T08:13:57.565Z,92.90
2018-07-21T08:17:22.298Z,93.00
2018-07-21T08:20:47.038Z,93.10
2018-07-21T08:24:12.716Z,92.90
2018-07-21T08:31:01.697Z,92.00
2018-07-21T08:34:26.399Z,91.90
2018-07-21T08:37:51.037Z,91.40
2018-07-21T08:41:15.798Z,91.00
2018-07-21T08:44:40.492Z,91.30
2018-07-21T08:48:05.251Z,91.00
2018-07-21T08:51:29.878Z,91.30
2018-07-21T08:54:54.584Z,90.70
2018-07-21T08:58:19.256Z,90.70
2018-07-21T09:01:43.941Z,90.20
2018-07-21T09:05:08.737Z,90.70
2018-07-21T09:08:33.480Z,88.60
2018-07-21T09:11:58.340Z,90.20
2018-07-21T09:15:23.000Z,90.20
2018-07-21T09:22:12.090Z,89.70
2018-07-21T09:25:36.720Z,88.20
2018-07-21T09:29:01.385Z,89.00
2018-07-21T09:32:26.081Z,88.10
2018-07-21T09:35:50.797Z,87.60
2018-07-21T09:39:15.456Z,87.30
2018-07-21T09:42:40.126Z,86.40
2018-07-21T09:46:05.256Z,86.70
2018-07-21T09:49:29.997Z,86.50
2018-07-21T09:52:54.659Z,86.30
2018-07-21T09:56:19.323Z,86.70
2018-07-21T09:59:44.069Z,87.00
2018-07-21T10:03:08.721Z,87.40
2018-07-21T10:09:57.775Z,88.50
2018-07-21T10:13:22.502Z,89.40
2018-07-21T10:16:47.164Z,88.20
2018-07-21T10:20:11.870Z,88.70
2018-07-21T10:23:36.589Z,88.20
2018-07-21T10:27:06.416Z,88.60
2018-07-21T10:30:31.105Z,88.30
2018-07-21T10:33:55.783Z,88.20
2018-07-21T10:40:44.840Z,88.70
2018-07-21T10:47:33.793Z,90.20
2018-07-21T10:57:47.341Z,89.10
2018-07-21T11:01:12.014Z,87.80
2018-07-21T11:04:36.760Z,86.60
2018-07-21T11:08:01.531Z,86.00
2018-07-21T11:11:26.148Z,85.80
2018-07-21T11:14:50.783Z,85.00
2018-07-21T11:18:15.513Z,84.60
2018-07-21T11:21:40.181Z,84.90
2018-07-21T11:28:29.770Z,84.80
2018-07-21T11:31:54.423Z,83.30
2018-07-21T11:35:19.186Z,83.00
2018-07-21T11:38:43.840Z,83.30
2018-07-21T11:42:08.526Z,82.50
2018-07-21T11:45:33.127Z,81.20
2018-07-21T11:48:57.768Z,83.10
2018-07-21T11:52:22.470Z,83.30
2018-07-21T11:55:47.215Z,83.20
2018-07-21T11:59:11.899Z,82.30
2018-07-21T12:02:36.560Z,82.40
2018-07-21T12:06:01.277Z,82.40
2018-07-21T12:09:26.106Z,82.50
2018-07-21T12:12:50.766Z,80.60
2018-07-21T12:16:15.399Z,80.00
2018-07-21T12:19:40.107Z,78.20
2018-07-21T12:23:04.790Z,76.30
2018-07-21T12:26:29.629Z,76.80
2018-07-21T12:33:18.590Z,76.60
2018-07-21T12:36:43.285Z,77.00
2018-07-21T12:40:08.007Z,76.30
2018-07-21T12:43:32.642Z,76.20
2018-07-21T12:46:57.312Z,77.30
2018-07-21T12:50:21.935Z,77.60
2018-07-21T12:57:10.935Z,75.90
2018-07-21T13:00:35.580Z,74.80
2018-07-21T13:04:00.230Z,73.80
2018-07-21T13:07:24.857Z,73.50
2018-07-21T13:10:49.537Z,73.60
2018-07-21T13:14:14.241Z,75.10
2018-07-21T13:17:38.923Z,74.40
2018-07-21T13:21:03.633Z,75.00
2018-07-21T13:24:28.233Z,74.80
2018-07-21T13:27:52.886Z,74.20
2018-07-21T13:31:17.587Z,73.10
2018-07-21T13:34:42.292Z,74.00
2018-07-21T13:38:06.916Z,73.80
2018-07-21T13:41:31.549Z,73.50
2018-07-21T13:44:56.232Z,75.20
2018-07-21T13:48:20.848Z,77.50
2018-07-21T13:51:45.559Z,79.00
2018-07-21T13:58:34.548Z,81.20
2018-07-21T14:01:59.246Z,83.30
2018-07-21T14:05:23.909Z,83.20
2018-07-21T14:08:48.535Z,83.60
2018-07-21T14:15:37.987Z,85.50
2018-07-21T14:19:02.630Z,86.10
2018-07-21T14:22:27.352Z,87.00
2018-07-21T14:25:52.022Z,87.60
2018-07-21T14:29:16.653Z,87.40
2018-07-21T14:32:41.321Z,86.70
2018-07-21T14:36:06.559Z,87.20
2018-07-21T14:39:31.137Z,87.90
2018-07-21T14:42:55.828Z,88.70
2018-07-21T14:46:20.484Z,89.50
2018-07-21T14:49:45.216Z,89.60
2018-07-21T14:53:09.907Z,89.60
2018-07-21T14:56:34.570Z,88.90
2018-07-21T14:59:59.254Z,90.10
2018-07-21T15:03:23.878Z,89.80
2018-07-21T15:06:48.511Z,89.70
2018-07-21T15:10:13.183Z,89.00
2018-07-21T15:13:37.898Z,89.40
2018-07-21T15:17:02.545Z,89.80
2018-07-21T15:20:27.178Z,89.50
2018-07-21T15:23:51.811Z,88.70
2018-07-21T15:27:16.711Z,88.10
2018-07-21T15:30:41.355Z,89.30
2018-07-21T15:34:06.071Z,90.70
2018-07-21T15:37:30.693Z,90.20
2018-07-21T15:40:55.376Z,88.10
2018-07-21T15:44:20.058Z,87.00
2018-07-21T15:47:44.811Z,86.70
2018-07-21T15:51:09.640Z,85.20
2018-07-21T15:54:34.307Z,84.90
2018-07-21T15:57:59.000Z,85.20
2018-07-21T16:01:23.765Z,85.00
2018-07-21T16:04:48.482Z,83.90
2018-07-21T16:08:13.194Z,85.80
2018-07-21T16:11:38.039Z,85.20
2018-07-21T16:15:03.866Z,88.30
2018-07-21T16:18:27.546Z,86.70
2018-07-21T16:21:52.240Z,85.70
2018-07-21T16:25:16.913Z,89.80
2018-07-21T16:28:42.582Z,88.80
2018-07-21T16:32:07.430Z,90.00
2018-07-21T16:35:32.092Z,89.50
2018-07-21T16:38:56.760Z,90.10
2018-07-21T16:42:21.382Z,90.70
2018-07-21T16:45:46.005Z,89.10
2018-07-21T16:49:10.759Z,88.00
2018-07-21T16:52:35.619Z,88.10
2018-07-21T16:56:00.312Z,89.30
2018-07-21T16:59:25.032Z,89.60
2018-07-21T17:02:49.678Z,89.70
2018-07-21T17:06:14.280Z,89.20
2018-07-21T17:09:38.907Z,90.30
2018-07-21T17:13:03.644Z,88.90
2018-07-21T17:16:28.261Z,88.60
2018-07-21T17:23:17.203Z,89.10
2018-07-21T17:26:41.860Z,89.00
2018-07-21T17:30:06.730Z,88.40
2018-07-21T17:33:31.432Z,88.00
2018-07-21T17:36:56.089Z,88.40
2018-07-21T17:40:20.779Z,88.10
2018-07-21T17:43:45.399Z,88.40
2018-07-21T17:47:10.065Z,87.10
2018-07-21T17:50:34.718Z,86.10
2018-07-21T17:53:59.397Z,87.60
2018-07-21T17:57:24.046Z,86.20
2018-07-21T18:00:48.687Z,87.00
2018-07-21T18:04:13.331Z,85.00
2018-07-21T18:07:37.998Z,85.70
2018-07-21T18:11:02.685Z,86.30
2018-07-21T18:14:27.394Z,87.20
2018-07-21T18:17:52.048Z,87.30
2018-07-21T18:21:16.840Z,87.00
2018-07-21T18:24:41.600Z,87.20
2018-07-21T18:28:06.255Z,87.00
2018-07-21T18:31:30.913Z,86.50
2018-07-21T18:34:55.583Z,86.00
2018-07-21T18:43:09.217Z,85.80
2018-07-21T18:46:33.903Z,85.10
2018-07-21T18:49:58.836Z,85.50
2018-07-21T18:56:48.807Z,83.70
2018-07-21T19:00:13.635Z,84.60
2018-07-21T19:03:38.519Z,84.40
2018-07-21T19:07:03.762Z,83.30
2018-07-21T19:10:28.638Z,84.00
2018-07-21T19:17:17.772Z,84.90
2018-07-21T19:21:48.689Z,85.00
2018-07-21T19:25:18.762Z,85.20
2018-07-21T19:28:43.745Z,85.80
2018-07-21T19:32:13.916Z,85.80
2018-07-21T19:35:39.090Z,85.60
2018-07-21T19:39:04.334Z,86.20
2018-07-21T19:42:29.229Z,86.00
2018-07-21T19:45:54.119Z,85.90
2018-07-21T19:49:19.387Z,85.90
2018-07-21T19:52:44.298Z,86.80
2018-07-21T19:56:09.086Z,86.30
2018-07-21T19:59:33.819Z,86.60
2018-07-21T20:02:58.467Z,87.10
2018-07-21T20:06:23.360Z,86.50
2018-07-21T20:09:48.049Z,86.80
2018-07-21T20:13:12.748Z,87.30
2018-07-21T20:16:37.778Z,88.00
2018-07-21T20:20:02.427Z,88.60
2018-07-21T20:23:27.104Z,89.00
2018-07-21T20:26:51.760Z,89.20
2018-07-21T20:33:41.132Z,89.50
2018-07-21T20:37:05.905Z,89.20
2018-07-21T20:40:30.653Z,88.50
2018-07-21T20:47:19.574Z,88.40
2018-07-21T20:50:44.281Z,89.10
2018-07-21T20:54:08.948Z,89.40
2018-07-21T20:57:33.654Z,88.80
2018-07-21T21:00:58.363Z,89.20
2018-07-21T21:04:23.116Z,89.40
2018-07-21T21:07:47.882Z,89.80
2018-07-21T21:11:12.565Z,90.40
2018-07-21T21:14:37.242Z,90.50
2018-07-21T21:21:26.527Z,90.60
2018-07-21T21:24:51.236Z,90.40
2018-07-21T21:28:16.048Z,90.60
2018-07-21T21:31:40.975Z,90.40
2018-07-21T21:35:05.812Z,90.40
2018-07-21T21:38:30.596Z,90.40
2018-07-21T21:41:55.467Z,90.40
2018-07-21T21:45:20.186Z,90.70
2018-07-21T21:48:51.322Z,91.20
2018-07-21T21:52:17.173Z,91.90
2018-07-21T21:55:43.460Z,92.00
2018-07-21T21:59:08.217Z,92.40
2018-07-21T22:02:33.062Z,92.80
2018-07-21T22:05:58.266Z,93.10
2018-07-21T22:09:22.993Z,93.20
2018-07-21T22:12:47.828Z,93.10
2018-07-21T22:16:12.599Z,93.10
2018-07-21T22:19:37.338Z,93.10
2018-07-21T22:23:02.087Z,92.60
2018-07-21T22:26:27.732Z,92.80
2018-07-21T22:29:52.374Z,93.10
2018-07-21T22:33:17.066Z,93.60
2018-07-21T22:36:41.852Z,93.60
2018-07-21T22:40:06.654Z,93.30
2018-07-21T22:43:31.399Z,93.20
2018-07-21T22:46:56.180Z,93.50
2018-07-21T22:50:20.806Z,93.70
2018-07-21T22:53:45.674Z,93.80
2018-07-21T22:57:10.482Z,93.60
2018-07-21T23:00:35.232Z,93.60
2018-07-21T23:04:00.120Z,93.60
2018-07-21T23:10:59.363Z,93.80
2018-07-21T23:14:25.101Z,93.70
2018-07-21T23:17:49.763Z,93.50
2018-07-21T23:21:14.410Z,93.10
2018-07-21T23:24:39.899Z,93.20
2018-07-21T23:28:04.624Z,93.40
2018-07-21T23:31:29.425Z,93.90
2018-07-21T23:34:54.264Z,94.20
2018-07-21T23:38:19.030Z,94.60
2018-07-21T23:41:43.851Z,94.80
2018-07-21T23:45:08.665Z,94.90
2018-07-21T23:48:33.344Z,95.10
2018-07-21T23:55:22.483Z,95.30
2018-07-21T23:58:47.425Z,95.90
